Main page
METAR-TAF:

METAR-TAF

Airports :

Bordeaux–Mérignac Airport

Bordeaux, France

latitude: 44-50N, longitude: 000-42W, elevation: 49 m

Current weather observation

The report was made 35 minutes ago, at 22:00 UTC
Wind 2 kt from the North
Temperature 14°C
Humidity 82%
Pressure 1025 hPa
Visibility 10 km or more
no clouds below 1500 m and no cumulonimbus

METAR: LFBD 212200Z AUTO 35002KT CAVOK 14/11 Q1025 NOSIG

Time: 00:35 (22:35 UTC)

Forecast

The report was made 5 hours and 35 minutes ago, at 17:00 UTC
Forecast valid from 21 at 18 UTC to 22 at 24 UTC
Wind 6 kt from the Northwest
Visibility 10 km or more
Broken clouds at a height of 3500 ft

TAF: LFBD 211700Z 2118/2224 32006KT 9999 BKN035 TX26/2215Z TN13/2203Z

Weather observations and forecasts of more than 4000 airports (METAR and TAF reports).

The available stations are represented by yellow and red dots on the map.

Hover mouse over dot to see the name of the station.

Then click to see weather observations and forecasts.

To change the map : click on the green buttons with a black cross to zoom in, on the green button with a dash to zoom out, or on the green arrows for adjacent maps.


METAR-TAF: